sensor_id;sensor_type;location;lat;lon;timestamp;temperature;humidity
13091;DHT22;6611;52.604;13.438;2024-03-23T00:55:26;8.49;88.60
13091;DHT22;6611;52.604;13.438;2024-03-23T01:00:28;8.48;88.53
13091;DHT22;6611;52.604;13.438;2024-03-23T01:05:31;8.41;88.56
13091;DHT22;6611;52.604;13.438;2024-03-23T01:10:34;8.47;88.82
13091;DHT22;6611;52.604;13.438;2024-03-23T01:15:35;8.49;88.70
13091;DHT22;6611;52.604;13.438;2024-03-23T01:20:37;8.44;88.80
13091;DHT22;6611;52.604;13.438;2024-03-23T01:25:41;8.49;88.98
13091;DHT22;6611;52.604;13.438;2024-03-23T01:30:43;8.47;88.80
13091;DHT22;6611;52.604;13.438;2024-03-23T01:35:45;8.41;89.10
13091;DHT22;6611;52.604;13.438;2024-03-23T01:40:47;8.40;89.22
13091;DHT22;6611;52.604;13.438;2024-03-23T01:45:49;8.42;89.22
13091;DHT22;6611;52.604;13.438;2024-03-23T01:50:53;8.36;89.19
13091;DHT22;6611;52.604;13.438;2024-03-23T01:55:56;8.34;89.14
13091;DHT22;6611;52.604;13.438;2024-03-23T02:00:58;8.34;89.12
13091;DHT22;6611;52.604;13.438;2024-03-23T02:06:00;8.37;89.29
13091;DHT22;6611;52.604;13.438;2024-03-23T02:11:03;8.41;89.27
13091;DHT22;6611;52.604;13.438;2024-03-23T02:16:05;8.36;89.61
13091;DHT22;6611;52.604;13.438;2024-03-23T02:21:07;8.33;89.48
13091;DHT22;6611;52.604;13.438;2024-03-23T02:26:10;8.38;89.22
13091;DHT22;6611;52.604;13.438;2024-03-23T02:31:11;8.37;89.23
13091;DHT22;6611;52.604;13.438;2024-03-23T02:36:13;8.37;89.44
13091;DHT22;6611;52.604;13.438;2024-03-23T02:41:19;8.38;89.28
13091;DHT22;6611;52.604;13.438;2024-03-23T02:46:23;8.29;89.60
13091;DHT22;6611;52.604;13.438;2024-03-23T02:51:24;8.33;89.65
13091;DHT22;6611;52.604;13.438;2024-03-23T02:56:27;8.33;89.65
13091;DHT22;6611;52.604;13.438;2024-03-23T03:01:29;8.40;89.21
13091;DHT22;6611;52.604;13.438;2024-03-23T03:06:31;8.38;89.16
13091;DHT22;6611;52.604;13.438;2024-03-23T03:11:34;8.37;89.04
13091;DHT22;6611;52.604;13.438;2024-03-23T03:16:36;8.37;88.81
13091;DHT22;6611;52.604;13.438;2024-03-23T03:21:37;8.37;88.90
13091;DHT22;6611;52.604;13.438;2024-03-23T03:26:40;8.37;88.96
13091;DHT22;6611;52.604;13.438;2024-03-23T03:31:42;8.26;88.79
13091;DHT22;6611;52.604;13.438;2024-03-23T03:36:47;8.26;88.59
13091;DHT22;6611;52.604;13.438;2024-03-23T03:41:50;8.19;88.77
13091;DHT22;6611;52.604;13.438;2024-03-23T03:46:53;8.19;88.78
13091;DHT22;6611;52.604;13.438;2024-03-23T03:51:56;8.14;88.77
13091;DHT22;6611;52.604;13.438;2024-03-23T03:56:59;8.07;87.60
13091;DHT22;6611;52.604;13.438;2024-03-23T04:02:01;7.87;87.57
13091;DHT22;6611;52.604;13.438;2024-03-23T04:07:02;7.71;88.02
13091;DHT22;6611;52.604;13.438;2024-03-23T04:12:07;7.65;88.32
13091;DHT22;6611;52.604;13.438;2024-03-23T04:17:08;7.65;88.78
13091;DHT22;6611;52.604;13.438;2024-03-23T04:22:10;7.68;88.24
13091;DHT22;6611;52.604;13.438;2024-03-23T04:27:13;7.65;88.24
13091;DHT22;6611;52.604;13.438;2024-03-23T04:32:17;7.65;88.29
13091;DHT22;6611;52.604;13.438;2024-03-23T04:37:19;7.59;88.12
13091;DHT22;6611;52.604;13.438;2024-03-23T04:42:22;7.55;87.73
13091;DHT22;6611;52.604;13.438;2024-03-23T04:47:24;7.46;88.15
13091;DHT22;6611;52.604;13.438;2024-03-23T04:52:25;7.34;88.58
13091;DHT22;6611;52.604;13.438;2024-03-23T04:57:28;7.24;88.42
13091;DHT22;6611;52.604;13.438;2024-03-23T05:02:32;7.22;88.87
13091;DHT22;6611;52.604;13.438;2024-03-23T05:07:35;7.23;88.89
13091;DHT22;6611;52.604;13.438;2024-03-23T05:12:38;7.19;89.13
13091;DHT22;6611;52.604;13.438;2024-03-23T05:17:40;7.12;89.34
13091;DHT22;6611;52.604;13.438;2024-03-23T05:22:41;7.10;89.28
13091;DHT22;6611;52.604;13.438;2024-03-23T05:27:44;7.06;89.28
13091;DHT22;6611;52.604;13.438;2024-03-23T05:32:46;7.12;89.55
13091;DHT22;6611;52.604;13.438;2024-03-23T05:37:47;7.17;89.45
13091;DHT22;6611;52.604;13.438;2024-03-23T05:42:50;7.28;88.64
13091;DHT22;6611;52.604;13.438;2024-03-23T05:47:54;7.30;88.72
13091;DHT22;6611;52.604;13.438;2024-03-23T05:52:57;7.27;89.10
13091;DHT22;6611;52.604;13.438;2024-03-23T05:58:00;7.27;89.08
13091;DHT22;6611;52.604;13.438;2024-03-23T06:03:01;7.31;89.66
13091;DHT22;6611;52.604;13.438;2024-03-23T06:08:03;7.35;89.42
13091;DHT22;6611;52.604;13.438;2024-03-23T06:13:06;7.26;89.74
13091;DHT22;6611;52.604;13.438;2024-03-23T06:18:08;7.30;89.05
13091;DHT22;6611;52.604;13.438;2024-03-23T06:23:10;7.34;89.97
13091;DHT22;6611;52.604;13.438;2024-03-23T06:28:14;7.40;89.98
13091;DHT22;6611;52.604;13.438;2024-03-23T06:33:16;7.50;89.64
13091;DHT22;6611;52.604;13.438;2024-03-23T06:38:18;7.51;89.21
13091;DHT22;6611;52.604;13.438;2024-03-23T06:43:23;7.57;89.41
13091;DHT22;6611;52.604;13.438;2024-03-23T06:48:25;7.68;89.02
13091;DHT22;6611;52.604;13.438;2024-03-23T06:53:27;7.74;89.42
13091;DHT22;6611;52.604;13.438;2024-03-23T06:58:30;7.78;89.17
13091;DHT22;6611;52.604;13.438;2024-03-23T07:03:33;7.92;88.38
13091;DHT22;6611;52.604;13.438;2024-03-23T07:08:34;7.90;88.39
13091;DHT22;6611;52.604;13.438;2024-03-23T07:13:37;7.96;88.12
13091;DHT22;6611;52.604;13.438;2024-03-23T07:18:39;7.97;87.99
13091;DHT22;6611;52.604;13.438;2024-03-23T07:23:42;8.06;87.82
13091;DHT22;6611;52.604;13.438;2024-03-23T07:28:46;8.09;87.63
13091;DHT22;6611;52.604;13.438;2024-03-23T07:33:49;8.31;87.08
13091;DHT22;6611;52.604;13.438;2024-03-23T07:38:51;8.47;85.41
13091;DHT22;6611;52.604;13.438;2024-03-23T07:43:55;8.48;85.11
13091;DHT22;6611;52.604;13.438;2024-03-23T07:48:56;8.41;84.54
13091;DHT22;6611;52.604;13.438;2024-03-23T07:53:58;8.40;85.21
13091;DHT22;6611;52.604;13.438;2024-03-23T07:59:01;8.33;85.21
13091;DHT22;6611;52.604;13.438;2024-03-23T08:04:03;8.13;84.11
13091;DHT22;6611;52.604;13.438;2024-03-23T08:09:06;8.13;85.23
13091;DHT22;6611;52.604;13.438;2024-03-23T08:14:09;8.12;83.43
13091;DHT22;6611;52.604;13.438;2024-03-23T08:19:11;7.86;84.89
13091;DHT22;6611;52.604;13.438;2024-03-23T08:24:12;7.58;83.95
13091;DHT22;6611;52.604;13.438;2024-03-23T08:29:15;7.62;85.71
13091;DHT22;6611;52.604;13.438;2024-03-23T08:34:17;7.65;85.94
13091;DHT22;6611;52.604;13.438;2024-03-23T08:39:19;7.67;85.11
13091;DHT22;6611;52.604;13.438;2024-03-23T08:44:22;7.81;84.37
13091;DHT22;6611;52.604;13.438;2024-03-23T08:49:23;7.76;83.69
13091;DHT22;6611;52.604;13.438;2024-03-23T08:54:25;7.71;83.39
13091;DHT22;6611;52.604;13.438;2024-03-23T08:59:29;7.59;84.58
13091;DHT22;6611;52.604;13.438;2024-03-23T09:04:31;7.65;82.81
13091;DHT22;6611;52.604;13.438;2024-03-23T09:09:32;7.51;83.49
13091;DHT22;6611;52.604;13.438;2024-03-23T09:14:35;7.33;83.96
13091;DHT22;6611;52.604;13.438;2024-03-23T09:19:37;7.02;83.70
13091;DHT22;6611;52.604;13.438;2024-03-23T09:24:39;7.05;84.58
13091;DHT22;6611;52.604;13.438;2024-03-23T09:29:44;6.89;84.27
13091;DHT22;6611;52.604;13.438;2024-03-23T09:34:46;6.75;84.43
13091;DHT22;6611;52.604;13.438;2024-03-23T09:39:47;7.09;84.61
13091;DHT22;6611;52.604;13.438;2024-03-23T09:44:51;7.15;84.08
13091;DHT22;6611;52.604;13.438;2024-03-23T09:49:54;7.16;83.62
13091;DHT22;6611;52.604;13.438;2024-03-23T09:54:56;7.33;82.99
13091;DHT22;6611;52.604;13.438;2024-03-23T09:59:59;7.02;80.94
13091;DHT22;6611;52.604;13.438;2024-03-23T10:05:00;6.93;81.26
13091;DHT22;6611;52.604;13.438;2024-03-23T10:10:10;6.91;80.76
13091;DHT22;6611;52.604;13.438;2024-03-23T10:15:18;6.87;81.66
13091;DHT22;6611;52.604;13.438;2024-03-23T10:20:21;6.65;81.83
13091;DHT22;6611;52.604;13.438;2024-03-23T10:25:23;6.64;82.10
13091;DHT22;6611;52.604;13.438;2024-03-23T10:30:27;6.63;83.15
13091;DHT22;6611;52.604;13.438;2024-03-23T10:35:28;6.65;82.52
13091;DHT22;6611;52.604;13.438;2024-03-23T10:40:30;6.67;83.72
13091;DHT22;6611;52.604;13.438;2024-03-23T10:45:33;6.53;83.95
13091;DHT22;6611;52.604;13.438;2024-03-23T10:50:35;6.45;84.76
13091;DHT22;6611;52.604;13.438;2024-03-23T10:55:37;6.51;84.16
13091;DHT22;6611;52.604;13.438;2024-03-23T11:00:40;6.38;85.00
13091;DHT22;6611;52.604;13.438;2024-03-23T11:05:46;6.53;85.03
13091;DHT22;6611;52.604;13.438;2024-03-23T11:10:48;6.61;84.26
13091;DHT22;6611;52.604;13.438;2024-03-23T11:15:53;6.72;84.41
13091;DHT22;6611;52.604;13.438;2024-03-23T11:20:55;6.82;84.90
13091;DHT22;6611;52.604;13.438;2024-03-23T11:25:56;6.98;83.63
13091;DHT22;6611;52.604;13.438;2024-03-23T11:30:59;7.07;83.44
13091;DHT22;6611;52.604;13.438;2024-03-23T11:36:01;7.13;84.20
13091;DHT22;6611;52.604;13.438;2024-03-23T11:41:03;7.19;84.47
13091;DHT22;6611;52.604;13.438;2024-03-23T11:46:06;7.17;83.68
13091;DHT22;6611;52.604;13.438;2024-03-23T11:51:08;7.51;83.35
13091;DHT22;6611;52.604;13.438;2024-03-23T11:56:11;7.75;81.81
13091;DHT22;6611;52.604;13.438;2024-03-23T12:01:14;7.81;80.65
13091;DHT22;6611;52.604;13.438;2024-03-23T12:06:19;7.69;79.77
13091;DHT22;6611;52.604;13.438;2024-03-23T12:11:21;7.67;81.53
13091;DHT22;6611;52.604;13.438;2024-03-23T12:16:25;7.79;80.79
13091;DHT22;6611;52.604;13.438;2024-03-23T12:21:27;7.78;80.21
13091;DHT22;6611;52.604;13.438;2024-03-23T12:26:29;7.67;80.84
13091;DHT22;6611;52.604;13.438;2024-03-23T12:31:32;7.74;80.11
13091;DHT22;6611;52.604;13.438;2024-03-23T12:36:34;7.78;81.81
13091;DHT22;6611;52.604;13.438;2024-03-23T12:41:35;7.82;81.17
13091;DHT22;6611;52.604;13.438;2024-03-23T12:46:39;8.02;80.92
13091;DHT22;6611;52.604;13.438;2024-03-23T12:51:49;8.31;80.31
13091;DHT22;6611;52.604;13.438;2024-03-23T12:56:54;8.21;78.28
13091;DHT22;6611;52.604;13.438;2024-03-23T13:01:58;8.20;79.43
13091;DHT22;6611;52.604;13.438;2024-03-23T13:07:00;8.59;76.74
13091;DHT22;6611;52.604;13.438;2024-03-23T13:12:02;9.03;76.89
13091;DHT22;6611;52.604;13.438;2024-03-23T13:17:05;9.26;75.90
13091;DHT22;6611;52.604;13.438;2024-03-23T13:22:07;9.17;74.88
13091;DHT22;6611;52.604;13.438;2024-03-23T13:27:12;9.21;74.72
13091;DHT22;6611;52.604;13.438;2024-03-23T13:32:15;9.48;74.47
13091;DHT22;6611;52.604;13.438;2024-03-23T13:37:16;9.76;74.20
13091;DHT22;6611;52.604;13.438;2024-03-23T13:42:18;10.06;74.51
13091;DHT22;6611;52.604;13.438;2024-03-23T13:47:21;10.41;71.09
13091;DHT22;6611;52.604;13.438;2024-03-23T13:52:22;10.06;72.35
13091;DHT22;6611;52.604;13.438;2024-03-23T13:57:26;9.89;72.37
13091;DHT22;6611;52.604;13.438;2024-03-23T14:02:29;9.86;75.39
13091;DHT22;6611;52.604;13.438;2024-03-23T14:07:30;9.98;72.66
13091;DHT22;6611;52.604;13.438;2024-03-23T14:12:34;9.79;72.49
13091;DHT22;6611;52.604;13.438;2024-03-23T14:17:37;9.66;72.79
13091;DHT22;6611;52.604;13.438;2024-03-23T14:22:39;9.42;73.77
13091;DHT22;6611;52.604;13.438;2024-03-23T14:27:43;9.01;75.43
13091;DHT22;6611;52.604;13.438;2024-03-23T14:32:46;8.17;74.63
13091;DHT22;6611;52.604;13.438;2024-03-23T14:37:48;7.50;78.50
13091;DHT22;6611;52.604;13.438;2024-03-23T14:42:50;6.87;81.63
13091;DHT22;6611;52.604;13.438;2024-03-23T14:47:53;6.25;82.38
13091;DHT22;6611;52.604;13.438;2024-03-23T14:52:55;6.06;83.40
13091;DHT22;6611;52.604;13.438;2024-03-23T14:57:56;5.88;84.63
13091;DHT22;6611;52.604;13.438;2024-03-23T15:02:59;6.22;85.94
13091;DHT22;6611;52.604;13.438;2024-03-23T15:08:02;6.58;84.42
13091;DHT22;6611;52.604;13.438;2024-03-23T15:13:04;7.17;86.17
13091;DHT22;6611;52.604;13.438;2024-03-23T15:18:07;7.35;83.84
13091;DHT22;6611;52.604;13.438;2024-03-23T15:23:09;7.31;83.24
13091;DHT22;6611;52.604;13.438;2024-03-23T15:28:11;7.68;83.75
13091;DHT22;6611;52.604;13.438;2024-03-23T15:33:14;7.75;82.41
13091;DHT22;6611;52.604;13.438;2024-03-23T15:38:15;7.90;83.50
13091;DHT22;6611;52.604;13.438;2024-03-23T15:43:19;8.12;81.51
13091;DHT22;6611;52.604;13.438;2024-03-23T15:48:22;8.29;80.51
13091;DHT22;6611;52.604;13.438;2024-03-23T15:53:25;8.29;79.60
13091;DHT22;6611;52.604;13.438;2024-03-23T15:58:27;8.42;80.42
13091;DHT22;6611;52.604;13.438;2024-03-23T16:03:31;8.44;80.12
13091;DHT22;6611;52.604;13.438;2024-03-23T16:08:34;8.49;77.90
13091;DHT22;6611;52.604;13.438;2024-03-23T16:13:35;8.51;78.74
13091;DHT22;6611;52.604;13.438;2024-03-23T16:18:39;8.41;77.97
13091;DHT22;6611;52.604;13.438;2024-03-23T16:23:44;8.36;78.15
13091;DHT22;6611;52.604;13.438;2024-03-23T16:28:46;8.34;78.91
13091;DHT22;6611;52.604;13.438;2024-03-23T16:33:50;8.00;77.31
13091;DHT22;6611;52.604;13.438;2024-03-23T16:38:52;7.96;75.52
13091;DHT22;6611;52.604;13.438;2024-03-23T16:43:54;7.87;76.91
13091;DHT22;6611;52.604;13.438;2024-03-23T16:49:03;7.79;75.86
13091;DHT22;6611;52.604;13.438;2024-03-23T16:54:06;7.74;76.85
13091;DHT22;6611;52.604;13.438;2024-03-23T16:59:07;7.71;77.06
13091;DHT22;6611;52.604;13.438;2024-03-23T17:04:11;7.54;77.38
13091;DHT22;6611;52.604;13.438;2024-03-23T17:09:14;7.57;76.39
13091;DHT22;6611;52.604;13.438;2024-03-23T17:14:16;7.46;77.40
13091;DHT22;6611;52.604;13.438;2024-03-23T17:19:21;7.31;78.96
13091;DHT22;6611;52.604;13.438;2024-03-23T17:24:23;7.22;78.99
13091;DHT22;6611;52.604;13.438;2024-03-23T17:29:24;7.17;78.67
13091;DHT22;6611;52.604;13.438;2024-03-23T17:34:27;7.10;77.92
13091;DHT22;6611;52.604;13.438;2024-03-23T17:39:30;7.09;78.90
13091;DHT22;6611;52.604;13.438;2024-03-23T17:44:32;7.03;79.14
13091;DHT22;6611;52.604;13.438;2024-03-23T17:49:36;7.00;79.27
13091;DHT22;6611;52.604;13.438;2024-03-23T17:54:38;7.00;79.31
13091;DHT22;6611;52.604;13.438;2024-03-23T17:59:40;6.95;79.50
13091;DHT22;6611;52.604;13.438;2024-03-23T18:04:43;6.91;79.57
13091;DHT22;6611;52.604;13.438;2024-03-23T18:09:45;6.85;80.54
13091;DHT22;6611;52.604;13.438;2024-03-23T18:14:47;6.92;80.01
13091;DHT22;6611;52.604;13.438;2024-03-23T18:19:50;7.06;79.17
13091;DHT22;6611;52.604;13.438;2024-03-23T18:24:51;6.87;80.12
13091;DHT22;6611;52.604;13.438;2024-03-23T18:29:54;6.74;81.62
13091;DHT22;6611;52.604;13.438;2024-03-23T18:34:57;6.65;80.37
13091;DHT22;6611;52.604;13.438;2024-03-23T18:39:59;6.65;79.99
13091;DHT22;6611;52.604;13.438;2024-03-23T18:45:00;6.54;80.13
13091;DHT22;6611;52.604;13.438;2024-03-23T18:50:04;6.50;79.48
13091;DHT22;6611;52.604;13.438;2024-03-23T18:55:06;6.41;80.17
13091;DHT22;6611;52.604;13.438;2024-03-23T19:00:12;6.55;81.31
13091;DHT22;6611;52.604;13.438;2024-03-23T19:05:16;6.74;79.74
13091;DHT22;6611;52.604;13.438;2024-03-23T19:10:18;6.89;77.29
13091;DHT22;6611;52.604;13.438;2024-03-23T19:15:21;7.00;76.51
13091;DHT22;6611;52.604;13.438;2024-03-23T19:20:24;7.10;76.57
13091;DHT22;6611;52.604;13.438;2024-03-23T19:25:26;6.68;76.48
13091;DHT22;6611;52.604;13.438;2024-03-23T19:30:28;6.37;77.26
13091;DHT22;6611;52.604;13.438;2024-03-23T19:35:32;6.29;78.01
13091;DHT22;6611;52.604;13.438;2024-03-23T19:40:33;6.26;78.04
13091;DHT22;6611;52.604;13.438;2024-03-23T19:45:35;6.15;78.41
13091;DHT22;6611;52.604;13.438;2024-03-23T19:50:38;5.99;80.12
13091;DHT22;6611;52.604;13.438;2024-03-23T19:55:40;5.90;79.88
13091;DHT22;6611;52.604;13.438;2024-03-23T20:00:41;5.73;80.73
13091;DHT22;6611;52.604;13.438;2024-03-23T20:05:44;5.65;81.04
13091;DHT22;6611;52.604;13.438;2024-03-23T20:10:46;5.58;80.25
13091;DHT22;6611;52.604;13.438;2024-03-23T20:15:52;5.60;80.67
13091;DHT22;6611;52.604;13.438;2024-03-23T20:20:55;5.61;81.06
13091;DHT22;6611;52.604;13.438;2024-03-23T20:25:59;5.58;81.18
13091;DHT22;6611;52.604;13.438;2024-03-23T20:31:03;5.57;80.68
13091;DHT22;6611;52.604;13.438;2024-03-23T20:36:07;5.54;80.91
13091;DHT22;6611;52.604;13.438;2024-03-23T20:41:09;5.57;80.40
13091;DHT22;6611;52.604;13.438;2024-03-23T20:46:11;5.44;81.18
13091;DHT22;6611;52.604;13.438;2024-03-23T20:51:15;5.51;80.53
13091;DHT22;6611;52.604;13.438;2024-03-23T20:56:17;5.40;81.07
13091;DHT22;6611;52.604;13.438;2024-03-23T21:01:19;5.40;81.04
13091;DHT22;6611;52.604;13.438;2024-03-23T21:06:24;5.35;80.53
13091;DHT22;6611;52.604;13.438;2024-03-23T21:11:25;5.32;81.54
13091;DHT22;6611;52.604;13.438;2024-03-23T21:16:27;5.28;81.68
13091;DHT22;6611;52.604;13.438;2024-03-23T21:21:31;5.26;81.41
13091;DHT22;6611;52.604;13.438;2024-03-23T21:26:34;5.20;82.26
13091;DHT22;6611;52.604;13.438;2024-03-23T21:31:35;5.23;82.24
13091;DHT22;6611;52.604;13.438;2024-03-23T21:36:38;5.15;82.33
13091;DHT22;6611;52.604;13.438;2024-03-23T21:41:40;5.05;83.17
13091;DHT22;6611;52.604;13.438;2024-03-23T21:46:43;4.99;83.52
13091;DHT22;6611;52.604;13.438;2024-03-23T21:51:46;5.13;82.47
13091;DHT22;6611;52.604;13.438;2024-03-23T21:56:47;5.18;82.31
13091;DHT22;6611;52.604;13.438;2024-03-23T22:01:49;5.22;82.20
13091;DHT22;6611;52.604;13.438;2024-03-23T22:06:52;5.18;82.13
13091;DHT22;6611;52.604;13.438;2024-03-23T22:11:54;5.18;81.68
13091;DHT22;6611;52.604;13.438;2024-03-23T22:16:57;5.18;81.36
13091;DHT22;6611;52.604;13.438;2024-03-23T22:22:00;5.09;81.14
13091;DHT22;6611;52.604;13.438;2024-03-23T22:27:01;5.07;81.88
13091;DHT22;6611;52.604;13.438;2024-03-23T22:32:04;4.89;81.87
13091;DHT22;6611;52.604;13.438;2024-03-23T22:37:07;4.98;82.12
13091;DHT22;6611;52.604;13.438;2024-03-23T22:42:08;4.95;81.63
13091;DHT22;6611;52.604;13.438;2024-03-23T22:47:10;4.92;81.80
13091;DHT22;6611;52.604;13.438;2024-03-23T22:52:13;4.96;81.64
13091;DHT22;6611;52.604;13.438;2024-03-23T22:57:15;4.87;82.34
13091;DHT22;6611;52.604;13.438;2024-03-23T23:02:16;4.77;82.89
13091;DHT22;6611;52.604;13.438;2024-03-23T23:07:20;4.81;81.95
13091;DHT22;6611;52.604;13.438;2024-03-23T23:12:22;4.87;81.58
13091;DHT22;6611;52.604;13.438;2024-03-23T23:17:24;4.80;81.77
13091;DHT22;6611;52.604;13.438;2024-03-23T23:22:27;4.80;81.84
13091;DHT22;6611;52.604;13.438;2024-03-23T23:27:29;4.85;81.48
13091;DHT22;6611;52.604;13.438;2024-03-23T23:32:30;4.84;81.45
13091;DHT22;6611;52.604;13.438;2024-03-23T23:37:34;4.83;81.79
13091;DHT22;6611;52.604;13.438;2024-03-23T23:42:36;4.78;81.59
13091;DHT22;6611;52.604;13.438;2024-03-23T23:47:37;4.87;81.80
13091;DHT22;6611;52.604;13.438;2024-03-23T23:52:40;4.78;82.38
13091;DHT22;6611;52.604;13.438;2024-03-23T23:57:43;4.85;81.70
